createdAt,value
2022-08-18T00:01:11.548Z,17.38
2022-08-18T00:03:56.706Z,17.37
2022-08-18T00:06:28.677Z,17.20
2022-08-18T00:08:58.713Z,17.26
2022-08-18T00:11:27.420Z,17.14
2022-08-18T00:13:55.597Z,17.14
2022-08-18T00:16:23.929Z,17.13
2022-08-18T00:18:53.319Z,17.08
2022-08-18T00:21:21.401Z,17.07
2022-08-18T00:23:49.696Z,16.95
2022-08-18T00:26:17.846Z,17.03
2022-08-18T00:28:45.806Z,17.03
2022-08-18T00:31:14.470Z,16.99
2022-08-18T00:33:43.877Z,16.93
2022-08-18T00:36:14.040Z,16.93
2022-08-18T00:38:42.059Z,16.85
2022-08-18T00:41:10.237Z,16.85
2022-08-18T00:43:42.864Z,16.75
2022-08-18T00:46:15.502Z,16.76
2022-08-18T00:48:48.448Z,16.63
2022-08-18T00:51:22.261Z,16.63
2022-08-18T00:53:53.827Z,16.63
2022-08-18T00:56:25.605Z,16.63
2022-08-18T00:58:59.471Z,16.57
2022-08-18T01:01:31.820Z,16.52
2022-08-18T01:04:07.463Z,16.54
2022-08-18T01:06:41.516Z,16.52
2022-08-18T01:09:10.341Z,16.49
2022-08-18T01:11:39.497Z,16.33
2022-08-18T01:14:10.357Z,16.40
2022-08-18T01:16:57.145Z,16.45
2022-08-18T01:19:45.286Z,16.41
2022-08-18T01:22:22.572Z,16.30
2022-08-18T01:25:11.200Z,16.34
2022-08-18T01:27:41.886Z,16.30
2022-08-18T01:30:12.869Z,16.25
2022-08-18T01:32:42.612Z,16.21
2022-08-18T01:35:12.618Z,16.13
2022-08-18T01:37:44.210Z,16.15
2022-08-18T01:41:17.511Z,16.03
2022-08-18T01:43:05.804Z,16.10
2022-08-18T01:45:34.635Z,15.98
2022-08-18T01:48:04.848Z,15.94
2022-08-18T01:50:35.309Z,15.83
2022-08-18T01:53:05.529Z,15.96
2022-08-18T01:55:36.834Z,15.92
2022-08-18T01:58:05.630Z,15.86
2022-08-18T02:00:33.834Z,15.88
2022-08-18T02:03:03.074Z,15.80
2022-08-18T02:05:37.298Z,15.69
2022-08-18T02:08:06.799Z,15.70
2022-08-18T02:10:36.699Z,15.68
2022-08-18T02:13:08.001Z,15.64
2022-08-18T02:15:36.550Z,15.75
2022-08-18T02:18:06.974Z,15.49
2022-08-18T02:20:38.205Z,15.43
2022-08-18T02:23:06.329Z,15.63
2022-08-18T02:25:34.494Z,15.57
2022-08-18T02:28:04.678Z,15.61
2022-08-18T02:30:33.140Z,15.57
2022-08-18T02:33:01.686Z,15.45
2022-08-18T02:35:29.694Z,15.56
2022-08-18T02:38:00.027Z,15.57
2022-08-18T02:40:28.632Z,15.48
2022-08-18T02:42:57.052Z,15.49
2022-08-18T02:45:26.577Z,15.55
2022-08-18T02:47:55.630Z,15.49
2022-08-18T02:50:25.213Z,15.43
2022-08-18T02:52:54.267Z,15.46
2022-08-18T02:55:22.810Z,15.39
2022-08-18T02:57:51.093Z,15.43
2022-08-18T03:00:20.816Z,15.39
2022-08-18T03:02:53.673Z,15.22
2022-08-18T03:05:22.049Z,15.24
2022-08-18T03:07:51.176Z,15.33
2022-08-18T03:10:33.306Z,15.01
2022-08-18T03:13:02.991Z,15.30
2022-08-18T03:15:31.077Z,15.12
2022-08-18T03:18:01.284Z,15.24
2022-08-18T03:20:31.085Z,15.31
2022-08-18T03:23:09.581Z,15.28
2022-08-18T03:25:37.871Z,15.25
2022-08-18T03:28:07.088Z,15.26
2022-08-18T03:30:35.026Z,15.27
2022-08-18T03:33:05.096Z,15.22
2022-08-18T03:35:35.606Z,15.25
2022-08-18T03:38:04.970Z,15.26
2022-08-18T03:40:35.585Z,15.21
2022-08-18T03:43:49.822Z,15.21
2022-08-18T03:45:57.810Z,15.22
2022-08-18T03:48:31.669Z,15.29
2022-08-18T03:51:05.513Z,15.12
2022-08-18T03:53:34.277Z,15.36
2022-08-18T03:56:02.453Z,15.18
2022-08-18T03:58:55.553Z,15.26
2022-08-18T04:01:27.380Z,15.33
2022-08-18T04:04:02.334Z,15.39
2022-08-18T04:06:33.103Z,15.36
2022-08-18T04:09:04.432Z,15.58
2022-08-18T04:11:35.906Z,15.60
2022-08-18T04:14:06.418Z,15.65
2022-08-18T04:16:35.058Z,15.64
2022-08-18T04:19:04.737Z,15.76
2022-08-18T04:21:34.914Z,15.80
2022-08-18T04:24:05.235Z,15.75
2022-08-18T04:26:37.476Z,15.86
2022-08-18T04:29:06.090Z,15.89
2022-08-18T04:31:35.708Z,15.95
2022-08-18T04:34:05.985Z,15.95
2022-08-18T04:36:35.975Z,16.19
2022-08-18T04:39:07.093Z,16.14
2022-08-18T04:41:35.944Z,16.35
2022-08-18T04:44:07.646Z,16.52
2022-08-18T04:46:37.258Z,16.68
2022-08-18T04:49:06.821Z,16.87
2022-08-18T04:52:37.208Z,17.08
2022-08-18T04:54:24.839Z,17.19
2022-08-18T04:56:53.079Z,17.26
2022-08-18T04:59:21.129Z,17.36
2022-08-18T05:01:49.290Z,17.52
2022-08-18T05:04:19.091Z,17.65
2022-08-18T05:06:47.711Z,17.68
2022-08-18T05:09:23.145Z,17.91
2022-08-18T05:11:51.708Z,17.87
2022-08-18T05:14:20.405Z,18.20
2022-08-18T05:16:49.713Z,18.28
2022-08-18T05:19:23.221Z,18.50
2022-08-18T05:21:59.577Z,18.68
2022-08-18T05:24:37.376Z,18.78
2022-08-18T05:27:07.574Z,18.92
2022-08-18T05:29:41.947Z,19.17
2022-08-18T05:32:46.436Z,19.36
2022-08-18T05:35:08.433Z,19.40
2022-08-18T05:37:44.414Z,19.56
2022-08-18T05:40:15.311Z,19.70
2022-08-18T05:42:44.063Z,19.74
2022-08-18T05:45:16.685Z,19.72
2022-08-18T05:47:45.726Z,19.60
2022-08-18T05:50:18.692Z,19.77
2022-08-18T05:52:53.659Z,19.82
2022-08-18T05:55:47.647Z,19.90
2022-08-18T05:58:19.412Z,20.01
2022-08-18T06:00:58.807Z,20.07
2022-08-18T06:03:45.034Z,20.08
2022-08-18T06:06:20.256Z,20.05
2022-08-18T06:08:53.864Z,20.06
2022-08-18T06:11:22.446Z,20.10
2022-08-18T06:13:59.538Z,20.11
2022-08-18T06:16:47.127Z,20.21
2022-08-18T06:19:31.156Z,20.08
2022-08-18T06:22:12.678Z,20.63
2022-08-18T06:24:50.098Z,20.82
2022-08-18T06:27:31.338Z,21.18
2022-08-18T06:30:07.381Z,21.10
2022-08-18T06:32:54.740Z,21.26
2022-08-18T06:35:34.588Z,21.24
2022-08-18T06:38:26.937Z,21.21
2022-08-18T06:41:03.016Z,21.18
2022-08-18T06:43:34.320Z,21.16
2022-08-18T06:46:09.448Z,21.23
2022-08-18T06:48:45.598Z,21.16
2022-08-18T06:51:20.096Z,21.10
2022-08-18T06:53:55.607Z,21.34
2022-08-18T06:56:28.601Z,21.42
2022-08-18T06:59:15.640Z,21.41
2022-08-18T07:01:45.908Z,21.45
2022-08-18T07:04:37.550Z,21.92
2022-08-18T07:07:18.310Z,22.09
2022-08-18T07:09:50.675Z,22.41
2022-08-18T07:12:26.719Z,22.64
2022-08-18T07:15:00.924Z,22.93
2022-08-18T07:17:43.252Z,23.11
2022-08-18T07:20:21.440Z,23.40
2022-08-18T07:22:55.193Z,23.40
2022-08-18T07:25:29.073Z,23.38
2022-08-18T07:27:57.781Z,23.71
2022-08-18T07:30:35.151Z,23.94
2022-08-18T07:33:14.435Z,24.16
2022-08-18T07:35:47.867Z,24.38
2022-08-18T07:41:15.833Z,24.77
2022-08-18T07:43:55.021Z,25.01
2022-08-18T07:46:31.497Z,25.05
2022-08-18T07:48:59.959Z,25.22
2022-08-18T07:51:43.826Z,25.31
2022-08-18T07:54:48.210Z,25.18
2022-08-18T07:57:20.978Z,25.72
2022-08-18T07:59:56.545Z,25.85
2022-08-18T08:02:36.428Z,25.89
2022-08-18T08:05:16.281Z,26.00
2022-08-18T08:07:51.671Z,26.19
2022-08-18T08:10:39.003Z,26.41
2022-08-18T08:13:36.971Z,26.52
2022-08-18T08:16:16.294Z,26.54
2022-08-18T08:18:56.635Z,26.53
2022-08-18T08:21:29.998Z,26.44
2022-08-18T08:24:11.456Z,26.43
2022-08-18T08:26:52.076Z,26.77
2022-08-18T08:29:37.663Z,26.98
2022-08-18T08:32:08.479Z,27.10
2022-08-18T08:34:43.868Z,27.29
2022-08-18T08:37:15.990Z,27.18
2022-08-18T08:39:49.818Z,27.51
2022-08-18T08:42:30.638Z,27.58
2022-08-18T08:45:07.959Z,27.68
2022-08-18T08:47:39.579Z,28.05
2022-08-18T08:50:13.323Z,28.20
2022-08-18T08:52:47.566Z,27.89
2022-08-18T08:55:21.671Z,28.05
2022-08-18T08:57:57.289Z,28.11
2022-08-18T09:03:31.076Z,28.65
2022-08-18T09:06:10.236Z,28.71
2022-08-18T09:08:56.055Z,28.96
2022-08-18T09:11:37.180Z,29.13
2022-08-18T09:14:44.481Z,29.55
2022-08-18T09:17:34.599Z,30.03
2022-08-18T09:20:17.624Z,30.37
2022-08-18T09:22:52.413Z,30.79
2022-08-18T09:25:45.210Z,30.51
2022-08-18T09:28:15.916Z,30.79
2022-08-18T09:31:19.557Z,30.59
2022-08-18T09:34:10.911Z,31.01
2022-08-18T09:36:59.333Z,31.70
2022-08-18T09:39:54.397Z,32.39
2022-08-18T09:42:50.076Z,33.30
2022-08-18T09:45:55.542Z,34.35
2022-08-18T09:48:30.581Z,34.61
2022-08-18T09:51:23.530Z,35.50
2022-08-18T09:54:14.973Z,35.73
2022-08-18T09:57:24.455Z,35.54
2022-08-18T10:00:00.406Z,35.30
2022-08-18T10:03:11.463Z,35.43
2022-08-18T10:05:40.587Z,36.03
2022-08-18T10:08:52.849Z,35.79
2022-08-18T10:11:52.789Z,36.98
2022-08-18T10:14:51.603Z,36.72
2022-08-18T10:17:33.146Z,36.86
2022-08-18T10:20:26.299Z,36.72
2022-08-18T10:22:59.383Z,37.05
2022-08-18T10:25:54.936Z,36.70
2022-08-18T10:28:54.754Z,37.64
2022-08-18T10:31:24.077Z,37.68
2022-08-18T10:34:16.355Z,37.38
2022-08-18T10:36:54.208Z,37.73
2022-08-18T10:39:46.608Z,37.82
2022-08-18T10:42:31.285Z,38.46
2022-08-18T10:45:16.068Z,38.68
2022-08-18T10:48:03.346Z,38.47
2022-08-18T10:50:37.245Z,38.25
2022-08-18T10:53:40.885Z,37.34
2022-08-18T10:56:10.339Z,37.61
2022-08-18T10:58:55.785Z,37.65
2022-08-18T11:01:51.302Z,38.31
2022-08-18T11:04:34.036Z,36.77
2022-08-18T11:07:10.992Z,36.78
2022-08-18T11:09:51.033Z,36.20
2022-08-18T11:12:58.064Z,35.53
2022-08-18T11:15:38.769Z,35.17
2022-08-18T11:18:20.269Z,34.87
2022-08-18T11:20:48.514Z,35.25
2022-08-18T11:23:19.357Z,34.99
2022-08-18T11:28:40.744Z,34.48
2022-08-18T11:31:15.140Z,34.40
2022-08-18T11:33:43.651Z,34.16
2022-08-18T11:36:11.823Z,33.69
2022-08-18T11:38:42.194Z,33.55
2022-08-18T11:41:19.273Z,33.97
2022-08-18T11:43:50.575Z,34.70
2022-08-18T11:46:31.534Z,35.03
2022-08-18T11:49:16.664Z,34.63
2022-08-18T11:51:57.745Z,34.83
2022-08-18T11:57:31.577Z,34.49
2022-08-18T12:00:00.546Z,34.07
2022-08-18T12:02:30.852Z,33.37
2022-08-18T12:05:08.586Z,33.01
2022-08-18T12:07:57.417Z,32.33
2022-08-18T12:10:34.498Z,31.88
2022-08-18T12:13:03.727Z,31.52
2022-08-18T12:15:44.275Z,31.53
2022-08-18T12:18:18.706Z,31.47
2022-08-18T12:20:54.990Z,31.29
2022-08-18T12:23:23.540Z,31.19
2022-08-18T12:25:51.918Z,30.93
2022-08-18T12:31:15.085Z,30.08
2022-08-18T12:34:00.942Z,30.27
2022-08-18T12:36:32.967Z,30.20
2022-08-18T12:39:02.062Z,30.10
2022-08-18T12:41:30.948Z,30.01
2022-08-18T12:43:59.896Z,29.64
2022-08-18T12:46:29.015Z,29.80
2022-08-18T12:49:01.070Z,29.64
2022-08-18T12:51:30.941Z,29.31
2022-08-18T12:54:00.364Z,29.29
2022-08-18T12:56:31.791Z,29.39
2022-08-18T12:59:04.310Z,29.52
2022-08-18T13:01:37.700Z,29.58
2022-08-18T13:04:12.817Z,29.50
2022-08-18T13:06:59.156Z,29.63
2022-08-18T13:09:34.218Z,29.69
2022-08-18T13:12:14.934Z,30.21
2022-08-18T13:14:44.481Z,30.22
2022-08-18T13:17:32.496Z,30.07
2022-08-18T13:20:06.452Z,30.03
2022-08-18T13:22:36.108Z,29.95
2022-08-18T13:25:07.408Z,30.10
2022-08-18T13:27:37.610Z,29.84
2022-08-18T13:30:16.713Z,29.54
2022-08-18T13:33:00.231Z,29.32
2022-08-18T13:35:35.478Z,29.01
2022-08-18T13:38:15.660Z,28.89
2022-08-18T13:40:49.854Z,28.71
2022-08-18T13:43:21.774Z,28.38
2022-08-18T13:45:52.786Z,28.10
2022-08-18T13:48:21.578Z,27.96
2022-08-18T13:50:56.029Z,28.02
2022-08-18T13:53:26.304Z,28.28
2022-08-18T13:55:58.152Z,27.98
2022-08-18T13:58:28.075Z,27.84
2022-08-18T14:01:22.438Z,27.46
2022-08-18T14:03:48.262Z,27.16
2022-08-18T14:06:23.804Z,27.20
2022-08-18T14:08:53.170Z,26.79
2022-08-18T14:11:27.598Z,26.49
2022-08-18T14:14:01.938Z,26.41
2022-08-18T14:16:30.789Z,26.12
2022-08-18T14:19:17.780Z,26.02
2022-08-18T14:22:11.373Z,25.85
2022-08-18T14:24:58.790Z,25.72
2022-08-18T14:27:34.717Z,25.99
2022-08-18T14:30:04.577Z,25.75
2022-08-18T14:32:36.773Z,25.86
2022-08-18T14:35:33.386Z,25.80
2022-08-18T14:38:05.577Z,25.95
2022-08-18T14:40:37.354Z,26.00
2022-08-18T14:43:10.741Z,25.75
2022-08-18T14:45:39.255Z,26.03
2022-08-18T14:48:11.170Z,26.03
2022-08-18T14:50:44.817Z,25.70
2022-08-18T14:53:21.093Z,25.30
2022-08-18T14:55:52.699Z,25.20
2022-08-18T14:58:21.539Z,25.18
2022-08-18T15:00:54.214Z,24.85
2022-08-18T15:03:28.144Z,24.81
2022-08-18T15:06:04.763Z,24.68
2022-08-18T15:08:36.399Z,24.74
2022-08-18T15:11:11.726Z,24.50
2022-08-18T15:13:42.338Z,24.40
2022-08-18T15:16:13.884Z,24.23
2022-08-18T15:18:42.449Z,24.15
2022-08-18T15:21:35.366Z,24.16
2022-08-18T15:24:37.681Z,24.23
2022-08-18T15:27:10.523Z,24.18
2022-08-18T15:29:47.503Z,24.15
2022-08-18T15:32:18.768Z,23.94
2022-08-18T15:34:51.242Z,24.06
2022-08-18T15:37:24.462Z,23.94
2022-08-18T15:40:05.581Z,23.87
2022-08-18T15:42:35.887Z,23.55
2022-08-18T15:45:11.852Z,23.61
2022-08-18T15:47:46.500Z,23.61
2022-08-18T15:50:25.598Z,23.50
2022-08-18T15:52:56.560Z,23.34
2022-08-18T15:55:28.803Z,22.99
2022-08-18T15:57:58.327Z,23.02
2022-08-18T16:00:28.446Z,23.13
2022-08-18T16:03:05.599Z,23.10
2022-08-18T16:05:40.880Z,22.91
2022-08-18T16:08:11.846Z,23.03
2022-08-18T16:10:42.401Z,22.82
2022-08-18T16:13:10.662Z,22.76
2022-08-18T16:15:41.943Z,22.79
2022-08-18T16:18:10.622Z,22.77
2022-08-18T16:20:39.147Z,22.78
2022-08-18T16:23:07.715Z,22.65
2022-08-18T16:25:39.134Z,22.65
2022-08-18T16:28:08.800Z,22.60
2022-08-18T16:30:37.276Z,22.70
2022-08-18T16:33:07.666Z,22.67
2022-08-18T16:35:37.594Z,22.75
2022-08-18T16:38:08.818Z,22.74
2022-08-18T16:40:37.617Z,22.62
2022-08-18T16:43:07.330Z,22.67
2022-08-18T16:45:38.063Z,22.47
2022-08-18T16:48:08.282Z,22.61
2022-08-18T16:50:37.892Z,22.25
2022-08-18T16:53:06.346Z,22.35
2022-08-18T16:55:35.436Z,22.34
2022-08-18T16:58:20.765Z,22.36
2022-08-18T17:01:07.836Z,22.35
2022-08-18T17:03:53.228Z,22.04
2022-08-18T17:06:21.555Z,22.05
2022-08-18T17:08:49.495Z,22.01
2022-08-18T17:11:20.504Z,21.94
2022-08-18T17:13:50.186Z,21.88
2022-08-18T17:16:21.265Z,21.86
2022-08-18T17:18:50.123Z,21.81
2022-08-18T17:21:25.368Z,21.50
2022-08-18T17:23:54.257Z,21.80
2022-08-18T17:26:33.730Z,21.74
2022-08-18T17:29:10.427Z,21.52
2022-08-18T17:31:44.369Z,21.39
2022-08-18T17:34:15.535Z,21.44
2022-08-18T17:36:52.957Z,21.42
2022-08-18T17:39:26.870Z,21.47
2022-08-18T17:42:17.606Z,21.51
2022-08-18T17:44:52.274Z,21.37
2022-08-18T17:47:27.464Z,21.33
2022-08-18T17:50:27.743Z,21.12
2022-08-18T17:53:05.533Z,21.26
2022-08-18T17:55:39.286Z,21.21
2022-08-18T17:58:13.649Z,21.12
2022-08-18T18:00:42.072Z,21.03
2022-08-18T18:03:13.280Z,20.94
2022-08-18T18:05:44.853Z,21.05
2022-08-18T18:08:13.030Z,21.07
2022-08-18T18:11:02.345Z,21.04
2022-08-18T18:13:32.826Z,20.99
2022-08-18T18:16:02.423Z,20.91
2022-08-18T18:18:46.216Z,20.78
2022-08-18T18:21:22.927Z,20.89
2022-08-18T18:24:16.206Z,20.79
2022-08-18T18:26:48.106Z,20.57
2022-08-18T18:29:29.285Z,20.39
2022-08-18T18:32:03.518Z,20.70
2022-08-18T18:34:39.810Z,20.51
2022-08-18T18:37:26.859Z,20.51
2022-08-18T18:40:00.188Z,20.38
2022-08-18T18:42:31.192Z,20.48
2022-08-18T18:45:01.551Z,20.36
2022-08-18T18:47:56.026Z,20.27
2022-08-18T18:50:33.118Z,20.26
2022-08-18T18:53:18.383Z,20.30
2022-08-18T18:56:02.900Z,20.20
2022-08-18T18:58:47.034Z,20.10
2022-08-18T19:01:24.083Z,20.08
2022-08-18T19:03:58.896Z,19.93
2022-08-18T19:06:33.833Z,20.02
2022-08-18T19:09:09.698Z,19.93
2022-08-18T19:11:53.204Z,20.04
2022-08-18T19:14:26.681Z,20.03
2022-08-18T19:17:02.878Z,19.93
2022-08-18T19:19:39.079Z,19.95
2022-08-18T19:22:14.934Z,19.99
2022-08-18T19:24:53.738Z,19.93
2022-08-18T19:27:28.211Z,19.90
2022-08-18T19:30:01.375Z,19.79
2022-08-18T19:32:38.497Z,19.77
2022-08-18T19:35:12.088Z,19.77
2022-08-18T19:37:57.291Z,19.88
2022-08-18T19:40:30.610Z,19.75
2022-08-18T19:43:04.873Z,19.93
2022-08-18T19:45:37.512Z,19.73
2022-08-18T19:48:13.083Z,19.75
2022-08-18T19:50:49.312Z,19.89
2022-08-18T19:53:33.547Z,19.67
2022-08-18T19:56:21.477Z,19.52
2022-08-18T19:59:17.899Z,19.55
2022-08-18T20:02:05.731Z,19.57
2022-08-18T20:04:52.096Z,19.63
2022-08-18T20:07:55.328Z,19.64
2022-08-18T20:10:46.824Z,19.52
2022-08-18T20:13:33.941Z,19.46
2022-08-18T20:16:16.094Z,19.25
2022-08-18T20:18:45.826Z,19.38
2022-08-18T20:21:39.809Z,19.36
2022-08-18T20:24:18.674Z,19.26
2022-08-18T20:26:51.137Z,18.91
2022-08-18T20:29:36.854Z,19.15
2022-08-18T20:32:18.260Z,18.97
2022-08-18T20:34:50.391Z,19.06
2022-08-18T20:37:27.326Z,19.03
2022-08-18T20:39:56.551Z,19.02
2022-08-18T20:42:57.538Z,18.83
2022-08-18T20:45:45.712Z,18.90
2022-08-18T20:48:25.987Z,18.83
2022-08-18T20:51:10.369Z,18.74
2022-08-18T20:53:56.189Z,18.66
2022-08-18T20:56:43.831Z,18.68
2022-08-18T20:59:20.247Z,18.55
2022-08-18T21:01:59.327Z,18.60
2022-08-18T21:04:42.935Z,18.60
2022-08-18T21:07:36.794Z,18.69
2022-08-18T21:10:12.840Z,18.36
2022-08-18T21:12:51.785Z,18.69
2022-08-18T21:15:24.371Z,18.64
2022-08-18T21:18:01.010Z,18.70
2022-08-18T21:20:29.794Z,18.60
2022-08-18T21:23:07.949Z,18.58
2022-08-18T21:25:36.961Z,18.76
2022-08-18T21:28:07.628Z,18.78
2022-08-18T21:30:38.444Z,18.76
2022-08-18T21:33:20.145Z,18.92
2022-08-18T21:35:48.631Z,18.80
2022-08-18T21:38:24.986Z,18.91
2022-08-18T21:40:57.360Z,18.96
2022-08-18T21:43:39.461Z,18.94
2022-08-18T21:46:10.302Z,18.95
2022-08-18T21:48:47.957Z,18.92
2022-08-18T21:51:21.614Z,19.00
2022-08-18T21:53:52.169Z,18.86
2022-08-18T21:56:25.880Z,19.08
2022-08-18T21:59:07.623Z,19.09
2022-08-18T22:01:38.337Z,19.10
2022-08-18T22:04:21.933Z,19.05
2022-08-18T22:06:53.041Z,18.91
2022-08-18T22:09:41.635Z,19.00
2022-08-18T22:12:44.497Z,19.09
2022-08-18T22:15:17.085Z,19.14
2022-08-18T22:17:55.528Z,18.96
2022-08-18T22:20:35.186Z,19.00
2022-08-18T22:23:26.401Z,19.15
2022-08-18T22:25:54.361Z,19.10
2022-08-18T22:28:24.209Z,19.19
2022-08-18T22:30:55.837Z,19.04
2022-08-18T22:33:25.144Z,19.22
2022-08-18T22:35:57.576Z,19.20
2022-08-18T22:38:28.272Z,19.22
2022-08-18T22:40:56.878Z,19.27
2022-08-18T22:43:26.046Z,19.08
2022-08-18T22:45:54.269Z,19.04
2022-08-18T22:48:22.487Z,19.06
2022-08-18T22:50:52.180Z,19.12
2022-08-18T22:53:20.570Z,19.14
2022-08-18T22:55:49.378Z,19.18
2022-08-18T22:58:25.394Z,19.18
2022-08-18T23:01:05.278Z,19.07
2022-08-18T23:03:41.950Z,19.03
2022-08-18T23:06:12.495Z,19.09
2022-08-18T23:08:54.354Z,19.05
2022-08-18T23:11:24.128Z,19.13
2022-08-18T23:13:52.809Z,19.12
2022-08-18T23:16:31.431Z,19.03
2022-08-18T23:19:02.119Z,19.03
2022-08-18T23:21:34.207Z,18.94
2022-08-18T23:24:05.084Z,19.10
2022-08-18T23:26:34.195Z,19.11
2022-08-18T23:29:02.346Z,19.08
2022-08-18T23:31:31.710Z,19.10
2022-08-18T23:34:01.559Z,19.02
2022-08-18T23:36:31.812Z,19.10
2022-08-18T23:39:00.731Z,19.08
2022-08-18T23:41:28.906Z,19.01
2022-08-18T23:43:59.794Z,19.11
2022-08-18T23:46:30.273Z,19.11
2022-08-18T23:49:00.547Z,18.84
2022-08-18T23:51:33.302Z,19.11
2022-08-18T23:54:05.520Z,18.93
2022-08-18T23:56:34.417Z,19.06
2022-08-18T23:59:03.419Z,19.09
